createdAt,value
2018-06-02T00:02:21.174Z,3.80
2018-06-02T00:04:48.740Z,4.40
2018-06-02T00:07:16.307Z,3.80
2018-06-02T00:09:43.874Z,3.50
2018-06-02T00:12:11.471Z,3.87
2018-06-02T00:14:39.041Z,4.67
2018-06-02T00:17:06.626Z,4.03
2018-06-02T00:19:34.186Z,3.73
2018-06-02T00:22:01.751Z,3.80
2018-06-02T00:24:29.337Z,3.70
2018-06-02T00:26:56.898Z,3.97
2018-06-02T00:29:24.464Z,3.53
2018-06-02T00:31:52.035Z,4.00
2018-06-02T00:34:19.613Z,4.30
2018-06-02T00:36:47.183Z,4.37
2018-06-02T00:39:14.751Z,4.87
2018-06-02T00:41:42.330Z,5.10
2018-06-02T00:44:09.903Z,4.10
2018-06-02T00:46:37.477Z,3.90
2018-06-02T00:49:05.054Z,4.00
2018-06-02T00:51:32.624Z,3.73
2018-06-02T00:54:00.194Z,4.40
2018-06-02T00:56:27.772Z,4.33
2018-06-02T00:58:55.336Z,4.40
2018-06-02T01:01:22.955Z,4.50
2018-06-02T01:03:50.525Z,4.40
2018-06-02T01:06:18.093Z,4.13
2018-06-02T01:08:45.693Z,4.00
2018-06-02T01:11:13.262Z,4.17
2018-06-02T01:13:40.839Z,4.03
2018-06-02T01:16:08.418Z,4.77
2018-06-02T01:18:35.991Z,3.70
2018-06-02T01:21:03.586Z,3.73
2018-06-02T01:23:31.154Z,3.20
2018-06-02T01:25:58.734Z,4.30
2018-06-02T01:28:26.317Z,3.40
2018-06-02T01:30:53.890Z,3.60
2018-06-02T01:33:21.461Z,3.20
2018-06-02T01:35:49.045Z,3.27
2018-06-02T01:38:16.641Z,3.07
2018-06-02T01:40:44.208Z,3.10
2018-06-02T01:43:11.776Z,2.80
2018-06-02T01:45:39.364Z,2.80
2018-06-02T01:48:06.941Z,2.63
2018-06-02T01:50:34.503Z,2.37
2018-06-02T01:53:02.070Z,2.70
2018-06-02T01:55:29.637Z,2.17
2018-06-02T01:57:57.215Z,2.13
2018-06-02T02:00:24.774Z,2.20
2018-06-02T02:02:52.350Z,2.00
2018-06-02T02:05:19.913Z,1.97
2018-06-02T02:07:47.513Z,2.07
2018-06-02T02:10:15.083Z,2.03
2018-06-02T02:12:42.654Z,1.60
2018-06-02T02:15:10.243Z,1.37
2018-06-02T02:17:37.813Z,1.70
2018-06-02T02:20:05.375Z,1.40
2018-06-02T02:22:32.946Z,1.60
2018-06-02T02:25:00.512Z,1.47
2018-06-02T02:27:28.090Z,1.50
2018-06-02T02:29:55.662Z,1.43
2018-06-02T02:32:23.237Z,1.60
2018-06-02T02:34:50.811Z,1.50
2018-06-02T02:37:18.386Z,1.80
2018-06-02T02:39:45.950Z,1.37
2018-06-02T02:42:13.521Z,1.83
2018-06-02T02:44:41.082Z,2.00
2018-06-02T02:47:08.667Z,1.67
2018-06-02T02:49:36.246Z,1.70
2018-06-02T02:52:03.821Z,1.43
2018-06-02T02:54:31.392Z,1.40
2018-06-02T02:56:58.956Z,1.60
2018-06-02T02:59:26.616Z,1.47
2018-06-02T03:01:54.186Z,1.53
2018-06-02T03:04:21.758Z,1.40
2018-06-02T03:06:49.338Z,1.30
2018-06-02T03:09:16.908Z,1.50
2018-06-02T03:11:44.471Z,1.60
2018-06-02T03:14:12.057Z,1.97
2018-06-02T03:16:39.623Z,1.70
2018-06-02T03:19:07.194Z,1.60
2018-06-02T03:21:34.801Z,1.80
2018-06-02T03:24:02.390Z,1.53
2018-06-02T03:26:29.958Z,1.63
2018-06-02T03:28:57.524Z,1.80
2018-06-02T03:31:25.087Z,1.60
2018-06-02T03:33:52.648Z,1.80
2018-06-02T03:36:20.224Z,1.80
2018-06-02T03:38:47.794Z,1.53
2018-06-02T03:41:15.362Z,1.50
2018-06-02T03:43:42.931Z,1.40
2018-06-02T03:46:10.637Z,1.87
2018-06-02T03:48:38.215Z,1.47
2018-06-02T03:51:05.787Z,2.53
2018-06-02T03:53:33.363Z,1.57
2018-06-02T03:56:00.930Z,1.37
2018-06-02T03:58:28.497Z,1.20
2018-06-02T04:00:56.070Z,1.40
2018-06-02T04:03:23.630Z,1.30
2018-06-02T04:05:51.200Z,1.37
2018-06-02T04:08:18.762Z,1.23
2018-06-02T04:10:46.334Z,1.27
2018-06-02T04:13:13.901Z,1.30
2018-06-02T04:15:41.479Z,1.23
2018-06-02T04:18:09.048Z,1.23
2018-06-02T04:20:36.650Z,1.50
2018-06-02T04:23:04.328Z,1.40
2018-06-02T04:25:31.902Z,1.23
2018-06-02T04:27:59.491Z,1.37
2018-06-02T04:30:27.062Z,1.70
2018-06-02T04:32:54.628Z,1.77
2018-06-02T04:35:22.191Z,1.20
2018-06-02T04:37:49.759Z,1.07
2018-06-02T04:40:17.326Z,1.50
2018-06-02T04:42:44.894Z,1.50
2018-06-02T04:45:12.459Z,1.27
2018-06-02T04:47:40.027Z,1.00
2018-06-02T04:50:07.594Z,1.37
2018-06-02T04:52:35.169Z,1.40
2018-06-02T04:55:02.751Z,1.00
2018-06-02T04:57:30.327Z,1.63
2018-06-02T04:59:57.895Z,1.00
2018-06-02T05:02:25.475Z,1.10
2018-06-02T05:04:53.042Z,1.07
2018-06-02T05:07:20.624Z,1.20
2018-06-02T05:09:48.188Z,1.27
2018-06-02T05:12:15.752Z,1.50
2018-06-02T05:14:43.316Z,1.30
2018-06-02T05:17:10.888Z,1.60
2018-06-02T05:19:38.465Z,1.20
2018-06-02T05:22:06.030Z,1.20
2018-06-02T05:24:33.601Z,1.83
2018-06-02T05:27:01.183Z,0.87
2018-06-02T05:29:28.755Z,1.10
2018-06-02T05:31:56.321Z,1.30
2018-06-02T05:34:23.916Z,1.27
2018-06-02T05:36:51.491Z,1.47
2018-06-02T05:39:19.055Z,1.53
2018-06-02T05:41:46.623Z,1.40
2018-06-02T05:44:14.193Z,1.30
2018-06-02T05:46:41.770Z,1.60
2018-06-02T05:49:09.345Z,1.17
2018-06-02T05:51:36.909Z,1.20
2018-06-02T05:54:04.483Z,1.20
2018-06-02T05:56:32.055Z,1.10
2018-06-02T05:58:59.623Z,1.20
2018-06-02T06:01:27.318Z,1.13
2018-06-02T06:03:54.908Z,1.67
2018-06-02T06:06:22.471Z,1.07
2018-06-02T06:08:50.049Z,1.33
2018-06-02T06:11:17.614Z,1.20
2018-06-02T06:13:45.178Z,1.20
2018-06-02T06:16:12.764Z,1.27
2018-06-02T06:18:40.326Z,1.43
2018-06-02T06:21:07.901Z,1.13
2018-06-02T06:23:35.471Z,1.40
2018-06-02T06:26:03.051Z,1.10
2018-06-02T06:28:30.642Z,1.17
2018-06-02T06:30:58.271Z,1.00
2018-06-02T06:33:25.893Z,1.10
2018-06-02T06:35:53.471Z,1.37
2018-06-02T06:38:21.126Z,1.50
2018-06-02T06:40:48.726Z,1.10
2018-06-02T06:43:16.312Z,1.27
2018-06-02T06:45:43.900Z,0.83
2018-06-02T06:48:11.740Z,1.30
2018-06-02T06:50:39.377Z,1.00
2018-06-02T06:53:06.921Z,1.20
2018-06-02T06:55:34.501Z,1.07
2018-06-02T06:58:02.071Z,1.20
2018-06-02T07:00:29.653Z,1.10
2018-06-02T07:02:57.315Z,1.20
2018-06-02T07:05:24.894Z,1.10
2018-06-02T07:07:52.463Z,1.40
2018-06-02T07:10:20.039Z,1.07
2018-06-02T07:12:47.632Z,1.10
2018-06-02T07:15:15.211Z,1.30
2018-06-02T07:17:42.803Z,1.07
2018-06-02T07:20:10.392Z,1.10
2018-06-02T07:22:37.959Z,1.00
2018-06-02T07:25:05.559Z,1.10
2018-06-02T07:27:33.163Z,1.07
2018-06-02T07:30:00.794Z,1.10
2018-06-02T07:32:28.367Z,0.90
2018-06-02T07:34:55.952Z,0.70
2018-06-02T07:37:23.525Z,0.87
2018-06-02T07:39:52.026Z,1.00
2018-06-02T07:42:19.619Z,1.07
2018-06-02T07:44:47.201Z,0.70
2018-06-02T07:47:14.815Z,0.90
2018-06-02T07:49:42.412Z,0.70
2018-06-02T07:52:10.021Z,0.90
2018-06-02T07:54:37.615Z,1.00
2018-06-02T07:57:05.246Z,1.10
2018-06-02T07:59:32.820Z,1.23
2018-06-02T08:02:00.406Z,1.07
2018-06-02T08:04:27.995Z,1.00
2018-06-02T08:06:55.568Z,0.90
2018-06-02T08:09:23.144Z,1.05
2018-06-02T08:11:50.739Z,1.00
2018-06-02T08:14:18.318Z,1.07
2018-06-02T08:16:45.898Z,0.90
2018-06-02T08:19:13.483Z,1.00
2018-06-02T08:21:41.066Z,1.13
2018-06-02T08:24:08.651Z,1.00
2018-06-02T08:26:36.258Z,1.07
2018-06-02T08:29:03.851Z,0.90
2018-06-02T08:31:31.431Z,0.93
2018-06-02T08:33:58.998Z,0.80
2018-06-02T08:36:26.592Z,0.90
2018-06-02T08:38:54.185Z,1.00
2018-06-02T08:41:21.758Z,0.70
2018-06-02T08:43:49.332Z,0.73
2018-06-02T08:46:16.931Z,1.00
2018-06-02T08:48:44.515Z,0.73
2018-06-02T08:51:12.094Z,0.80
2018-06-02T08:53:39.702Z,0.73
2018-06-02T08:56:07.270Z,0.90
2018-06-02T08:58:34.841Z,0.77
2018-06-02T09:01:02.410Z,0.80
2018-06-02T09:03:29.975Z,1.03
2018-06-02T09:05:57.539Z,1.10
2018-06-02T09:08:25.115Z,0.90
2018-06-02T09:10:52.674Z,1.03
2018-06-02T09:13:20.244Z,0.87
2018-06-02T09:15:47.815Z,1.00
2018-06-02T09:18:15.412Z,0.77
2018-06-02T09:20:42.995Z,0.67
2018-06-02T09:23:10.558Z,1.00
2018-06-02T09:25:38.124Z,0.90
2018-06-02T09:28:05.694Z,0.87
2018-06-02T09:30:33.266Z,1.00
2018-06-02T09:33:00.835Z,0.70
2018-06-02T09:35:28.406Z,1.03
2018-06-02T09:37:55.973Z,0.83
2018-06-02T09:40:23.554Z,1.00
2018-06-02T09:42:51.127Z,0.80
2018-06-02T09:45:18.695Z,0.90
2018-06-02T09:47:46.290Z,0.80
2018-06-02T09:50:13.854Z,0.87
2018-06-02T09:52:41.445Z,0.90
2018-06-02T09:55:09.008Z,0.80
2018-06-02T09:57:36.577Z,0.93
2018-06-02T10:00:04.214Z,0.90
2018-06-02T10:02:31.781Z,0.90
2018-06-02T10:04:59.349Z,2.00
2018-06-02T10:07:26.936Z,0.60
2018-06-02T10:09:54.537Z,0.70
2018-06-02T10:12:22.100Z,0.60
2018-06-02T10:14:49.672Z,0.40
2018-06-02T10:17:17.244Z,0.80
2018-06-02T10:19:44.815Z,1.10
2018-06-02T10:22:12.387Z,1.07
2018-06-02T10:24:39.950Z,0.70
2018-06-02T10:27:07.548Z,0.80
2018-06-02T10:29:35.167Z,0.90
2018-06-02T10:32:02.759Z,1.00
2018-06-02T10:34:30.347Z,1.00
2018-06-02T10:36:57.924Z,0.90
2018-06-02T10:39:25.505Z,0.70
2018-06-02T10:41:53.085Z,0.80
2018-06-02T10:44:20.698Z,0.83
2018-06-02T10:46:48.280Z,0.77
2018-06-02T10:49:15.860Z,0.70
2018-06-02T10:51:43.445Z,0.80
2018-06-02T10:54:11.048Z,0.80
2018-06-02T10:56:38.631Z,0.70
2018-06-02T10:59:06.303Z,0.80
2018-06-02T11:01:33.900Z,0.70
2018-06-02T11:04:01.490Z,0.70
2018-06-02T11:06:29.216Z,0.90
2018-06-02T11:08:56.839Z,0.73
2018-06-02T11:11:24.418Z,0.83
2018-06-02T11:13:52.042Z,0.80
2018-06-02T11:16:19.610Z,0.70
2018-06-02T11:18:47.186Z,1.07
2018-06-02T11:21:14.818Z,0.70
2018-06-02T11:23:42.403Z,1.00
2018-06-02T11:26:09.982Z,0.60
2018-06-02T11:28:37.572Z,0.70
2018-06-02T11:31:05.188Z,1.00
2018-06-02T11:33:32.771Z,0.97
2018-06-02T11:36:00.350Z,0.83
2018-06-02T11:38:27.943Z,0.90
2018-06-02T11:40:55.534Z,0.90
2018-06-02T11:43:23.150Z,0.60
2018-06-02T11:45:50.751Z,0.70
2018-06-02T11:48:18.327Z,0.80
2018-06-02T11:50:45.961Z,1.13
2018-06-02T11:53:13.543Z,0.83
2018-06-02T11:55:41.139Z,1.00
2018-06-02T11:58:08.725Z,0.60
2018-06-02T12:00:36.298Z,0.70
2018-06-02T12:03:03.896Z,0.80
2018-06-02T12:05:31.511Z,0.80
2018-06-02T12:07:59.103Z,0.97
2018-06-02T12:10:26.694Z,0.57
2018-06-02T12:12:54.285Z,0.60
2018-06-02T12:15:21.866Z,0.87
2018-06-02T12:17:49.439Z,0.70
2018-06-02T12:20:17.019Z,0.90
2018-06-02T12:22:44.595Z,0.70
2018-06-02T12:25:12.179Z,0.80
2018-06-02T12:27:39.763Z,0.50
2018-06-02T12:30:07.339Z,1.37
2018-06-02T12:32:34.924Z,0.70
2018-06-02T12:35:02.525Z,0.60
2018-06-02T12:37:30.139Z,0.70
2018-06-02T12:39:57.712Z,0.60
2018-06-02T12:42:25.298Z,0.70
2018-06-02T12:44:52.866Z,0.80
2018-06-02T12:47:20.425Z,0.60
2018-06-02T12:49:48.007Z,0.47
2018-06-02T12:52:15.576Z,0.73
2018-06-02T12:54:43.162Z,0.90
2018-06-02T12:57:10.730Z,0.70
2018-06-02T12:59:38.311Z,0.70
2018-06-02T13:02:05.907Z,0.53
2018-06-02T13:04:33.505Z,0.90
2018-06-02T13:07:01.102Z,0.60
2018-06-02T13:09:28.712Z,0.77
2018-06-02T13:11:56.298Z,0.80
2018-06-02T13:14:23.894Z,0.80
2018-06-02T13:16:51.483Z,0.73
2018-06-02T13:19:19.087Z,0.60
2018-06-02T13:21:46.684Z,1.10
2018-06-02T13:24:14.270Z,0.60
2018-06-02T13:26:41.862Z,0.73
2018-06-02T13:29:09.433Z,0.70
2018-06-02T13:31:37.043Z,0.70
2018-06-02T13:34:04.767Z,0.80
2018-06-02T13:36:32.354Z,0.80
2018-06-02T13:38:59.969Z,0.60
2018-06-02T13:41:27.538Z,0.90
2018-06-02T13:43:55.138Z,1.50
2018-06-02T13:46:22.709Z,0.90
2018-06-02T13:48:50.330Z,0.60
2018-06-02T13:51:17.977Z,0.90
2018-06-02T13:53:45.550Z,0.77
2018-06-02T13:56:13.878Z,1.00
2018-06-02T13:58:41.464Z,0.90
2018-06-02T14:01:09.240Z,0.80
2018-06-02T14:03:36.856Z,0.70
2018-06-02T14:06:04.474Z,1.00
2018-06-02T14:08:32.084Z,0.87
2018-06-02T14:10:59.749Z,0.80
2018-06-02T14:13:27.331Z,0.70
2018-06-02T14:15:54.912Z,0.87
2018-06-02T14:18:22.490Z,0.93
2018-06-02T14:20:50.085Z,0.50
2018-06-02T14:23:17.680Z,0.80
2018-06-02T14:25:46.709Z,0.80
2018-06-02T14:28:14.306Z,0.70
2018-06-02T14:30:42.912Z,1.00
2018-06-02T14:33:10.510Z,0.73
2018-06-02T14:35:38.106Z,0.97
2018-06-02T14:38:05.868Z,0.70
2018-06-02T14:40:33.469Z,1.00
2018-06-02T14:43:01.067Z,0.77
2018-06-02T14:45:28.647Z,0.90
2018-06-02T14:47:56.211Z,0.87
2018-06-02T14:50:23.828Z,1.27
2018-06-02T14:52:51.433Z,0.93
2018-06-02T14:55:19.034Z,0.90
2018-06-02T14:57:46.634Z,0.83
2018-06-02T15:00:14.253Z,0.93
2018-06-02T15:02:41.826Z,0.90
2018-06-02T15:05:09.409Z,0.80
2018-06-02T15:07:36.994Z,1.80
2018-06-02T15:10:04.576Z,0.80
2018-06-02T15:12:32.163Z,0.90
2018-06-02T15:14:59.771Z,1.00
2018-06-02T15:17:27.379Z,0.80
2018-06-02T15:19:55.865Z,1.03
2018-06-02T15:22:23.466Z,1.00
2018-06-02T15:24:51.162Z,0.97
2018-06-02T15:27:18.703Z,1.20
2018-06-02T15:29:46.293Z,1.00
2018-06-02T15:32:13.918Z,0.90
2018-06-02T15:34:41.518Z,0.90
2018-06-02T15:37:09.089Z,0.80
2018-06-02T15:39:36.679Z,1.00
2018-06-02T15:42:04.358Z,0.90
2018-06-02T15:44:31.942Z,0.53
2018-06-02T15:46:59.535Z,0.93
2018-06-02T15:49:27.119Z,0.80
2018-06-02T15:51:54.715Z,0.80
2018-06-02T15:54:22.314Z,0.70
2018-06-02T15:56:49.909Z,0.50
2018-06-02T15:59:17.531Z,1.17
2018-06-02T16:01:45.172Z,0.73
2018-06-02T16:04:12.789Z,0.90
2018-06-02T16:06:40.384Z,0.90
2018-06-02T16:09:07.977Z,0.90
2018-06-02T16:11:35.582Z,1.00
2018-06-02T16:14:03.181Z,1.00
2018-06-02T16:16:30.779Z,0.90
2018-06-02T16:18:58.363Z,0.97
2018-06-02T16:21:25.948Z,0.83
2018-06-02T16:23:53.558Z,1.03
2018-06-02T16:26:21.162Z,0.80
2018-06-02T16:28:48.766Z,0.80
2018-06-02T16:31:16.386Z,1.30
2018-06-02T16:33:44.016Z,0.63
2018-06-02T16:36:12.103Z,0.80
2018-06-02T16:38:39.853Z,0.80
2018-06-02T16:41:07.434Z,0.70
2018-06-02T16:43:35.021Z,1.03
2018-06-02T16:46:02.659Z,1.00
2018-06-02T16:48:30.278Z,0.90
2018-06-02T16:50:57.876Z,0.90
2018-06-02T16:53:25.610Z,0.60
2018-06-02T16:55:53.192Z,0.90
2018-06-02T16:58:20.761Z,0.80
2018-06-02T17:00:48.346Z,0.87
2018-06-02T17:03:15.949Z,0.70
2018-06-02T17:05:43.675Z,0.90
2018-06-02T17:08:11.244Z,0.77
2018-06-02T17:10:38.969Z,0.83
2018-06-02T17:13:06.626Z,0.60
2018-06-02T17:15:34.878Z,0.90
2018-06-02T17:18:02.812Z,0.73
2018-06-02T17:20:30.508Z,0.90
2018-06-02T17:22:58.102Z,0.63
2018-06-02T17:25:25.687Z,0.63
2018-06-02T17:27:53.259Z,0.70
2018-06-02T17:30:20.835Z,2.10
2018-06-02T17:32:48.457Z,0.60
2018-06-02T17:35:16.044Z,0.80
2018-06-02T17:37:43.630Z,0.67
2018-06-02T17:40:11.261Z,0.70
2018-06-02T17:42:38.895Z,0.50
2018-06-02T17:45:06.503Z,0.70
2018-06-02T17:47:34.078Z,0.80
2018-06-02T17:50:01.666Z,0.60
2018-06-02T17:52:29.237Z,0.63
2018-06-02T17:54:56.810Z,0.80
2018-06-02T17:57:25.140Z,0.70
2018-06-02T17:59:52.726Z,0.70
2018-06-02T18:02:20.327Z,0.57
2018-06-02T18:04:47.930Z,0.70
2018-06-02T18:07:15.516Z,0.77
2018-06-02T18:09:43.180Z,0.60
2018-06-02T18:12:10.767Z,0.57
2018-06-02T18:14:38.361Z,0.50
2018-06-02T18:17:05.951Z,0.60
2018-06-02T18:19:33.533Z,0.60
2018-06-02T18:22:01.129Z,0.60
2018-06-02T18:24:28.729Z,0.70
2018-06-02T18:26:56.326Z,1.40
2018-06-02T18:29:23.930Z,0.60
2018-06-02T18:31:51.514Z,1.47
2018-06-02T18:34:19.103Z,0.70
2018-06-02T18:36:46.696Z,0.50
2018-06-02T18:39:14.282Z,0.80
2018-06-02T18:41:41.874Z,0.63
2018-06-02T18:44:09.482Z,0.60
2018-06-02T18:46:37.078Z,0.83
2018-06-02T18:49:04.671Z,0.83
2018-06-02T18:51:32.299Z,0.60
2018-06-02T18:53:59.866Z,0.90
2018-06-02T18:56:27.447Z,1.00
2018-06-02T18:58:55.031Z,0.70
2018-06-02T19:01:22.602Z,0.90
2018-06-02T19:03:50.176Z,0.70
2018-06-02T19:06:17.756Z,0.70
2018-06-02T19:08:45.346Z,0.93
2018-06-02T19:11:12.944Z,0.83
2018-06-02T19:13:40.545Z,0.70
2018-06-02T19:16:08.122Z,0.70
2018-06-02T19:18:35.687Z,1.00
2018-06-02T19:21:03.273Z,0.90
2018-06-02T19:23:30.860Z,0.90
2018-06-02T19:25:57.730Z,0.77
2018-06-02T19:28:25.303Z,1.07
2018-06-02T19:30:52.886Z,1.10
2018-06-02T19:33:20.466Z,0.63
2018-06-02T19:35:48.065Z,0.83
2018-06-02T19:38:15.672Z,1.37
2018-06-02T19:40:43.246Z,0.90
2018-06-02T19:43:10.815Z,1.10
2018-06-02T19:45:38.378Z,1.03
2018-06-02T19:48:05.954Z,1.00
2018-06-02T19:50:33.554Z,0.90
2018-06-02T19:53:01.118Z,0.87
2018-06-02T19:55:28.686Z,0.90
2018-06-02T19:57:56.314Z,0.80
2018-06-02T20:00:23.874Z,0.90
2018-06-02T20:02:51.435Z,0.80
2018-06-02T20:05:19.014Z,1.00
2018-06-02T20:07:46.583Z,1.17
2018-06-02T20:10:14.163Z,0.97
2018-06-02T20:12:45.009Z,1.03
2018-06-02T20:15:12.600Z,0.93
2018-06-02T20:17:40.159Z,0.90
2018-06-02T20:20:07.734Z,0.83
2018-06-02T20:22:35.328Z,0.80
2018-06-02T20:25:02.926Z,1.27
2018-06-02T20:27:30.502Z,1.00
2018-06-02T20:29:58.068Z,1.37
2018-06-02T20:32:25.648Z,0.90
2018-06-02T20:34:53.225Z,0.97
2018-06-02T20:37:20.841Z,1.00
2018-06-02T20:39:48.406Z,0.97
2018-06-02T20:42:15.982Z,1.10
2018-06-02T20:44:43.552Z,1.10
2018-06-02T20:47:11.115Z,1.20
2018-06-02T20:49:38.741Z,1.20
2018-06-02T20:52:06.339Z,1.10
2018-06-02T20:54:33.946Z,1.13
2018-06-02T20:57:01.549Z,1.40
2018-06-02T20:59:29.158Z,1.30
2018-06-02T21:01:56.727Z,0.93
2018-06-02T21:04:24.352Z,1.07
2018-06-02T21:06:51.926Z,1.10
2018-06-02T21:09:19.522Z,1.17
2018-06-02T21:11:47.092Z,1.50
2018-06-02T21:14:14.762Z,1.00
2018-06-02T21:16:42.334Z,1.13
2018-06-02T21:19:09.914Z,1.10
2018-06-02T21:21:37.490Z,1.13
2018-06-02T21:24:05.082Z,1.00
2018-06-02T21:26:32.646Z,1.00
2018-06-02T21:29:00.231Z,1.03
2018-06-02T21:31:27.818Z,1.30
2018-06-02T21:33:55.423Z,1.40
2018-06-02T21:36:23.011Z,1.30
2018-06-02T21:38:50.598Z,1.60
2018-06-02T21:41:18.170Z,1.40
2018-06-02T21:43:45.762Z,0.97
2018-06-02T21:46:13.402Z,1.50
2018-06-02T21:48:40.939Z,1.23
2018-06-02T21:51:08.558Z,1.20
2018-06-02T21:53:36.127Z,1.23
2018-06-02T21:56:03.735Z,1.23
2018-06-02T21:58:31.316Z,1.30
2018-06-02T22:00:59.114Z,1.23
2018-06-02T22:03:26.740Z,1.40
2018-06-02T22:05:54.341Z,1.17
2018-06-02T22:08:22.310Z,1.07
2018-06-02T22:10:49.990Z,1.30
2018-06-02T22:13:17.627Z,1.20
2018-06-02T22:15:45.254Z,1.33
2018-06-02T22:18:12.846Z,1.10
2018-06-02T22:20:40.451Z,1.40
2018-06-02T22:23:08.031Z,1.50
2018-06-02T22:25:35.614Z,1.47
2018-06-02T22:28:03.221Z,1.37
2018-06-02T22:30:30.798Z,1.50
2018-06-02T22:32:58.398Z,1.53
2018-06-02T22:35:25.990Z,1.50
2018-06-02T22:37:53.562Z,1.97
2018-06-02T22:40:21.146Z,1.60
2018-06-02T22:42:48.795Z,1.60
2018-06-02T22:45:16.390Z,1.70
2018-06-02T22:47:43.982Z,1.93
2018-06-02T22:50:11.592Z,1.57
2018-06-02T22:52:39.235Z,1.40
2018-06-02T22:55:06.848Z,1.93
2018-06-02T22:57:34.486Z,1.60
2018-06-02T23:00:25.511Z,1.70
2018-06-02T23:02:53.109Z,2.07
2018-06-02T23:05:20.730Z,2.17
2018-06-02T23:07:48.369Z,1.57
2018-06-02T23:10:15.975Z,1.80
2018-06-02T23:12:43.571Z,2.27
2018-06-02T23:15:11.196Z,1.90
2018-06-02T23:17:38.780Z,2.10
2018-06-02T23:20:06.392Z,2.03
2018-06-02T23:22:39.878Z,2.37
2018-06-02T23:25:08.455Z,1.67
2018-06-02T23:27:36.092Z,1.90
2018-06-02T23:30:04.498Z,1.80
2018-06-02T23:32:32.103Z,2.03
2018-06-02T23:34:59.680Z,1.70
2018-06-02T23:37:27.282Z,2.30
2018-06-02T23:39:54.905Z,2.07
2018-06-02T23:42:22.502Z,1.90
2018-06-02T23:44:50.082Z,1.90
2018-06-02T23:47:17.679Z,1.30
2018-06-02T23:49:45.290Z,1.63
2018-06-02T23:52:12.883Z,1.50
2018-06-02T23:54:40.470Z,1.87
2018-06-02T23:57:08.060Z,1.70
2018-06-02T23:59:35.699Z,1.87
